createdAt,value
2023-02-14T00:01:24.161Z,28.10
2023-02-14T00:03:51.590Z,29.93
2023-02-14T00:06:19.004Z,26.33
2023-02-14T00:08:47.855Z,27.00
2023-02-14T00:11:15.116Z,27.73
2023-02-14T00:14:02.402Z,26.03
2023-02-14T00:16:29.721Z,26.33
2023-02-14T00:19:03.158Z,25.93
2023-02-14T00:21:38.462Z,27.37
2023-02-14T00:24:06.754Z,25.67
2023-02-14T00:26:34.355Z,30.23
2023-02-14T00:29:01.701Z,27.53
2023-02-14T00:34:14.898Z,28.20
2023-02-14T00:36:42.253Z,26.57
2023-02-14T00:39:11.245Z,26.20
2023-02-14T00:41:38.899Z,26.70
2023-02-14T00:44:06.601Z,26.67
2023-02-14T00:46:34.737Z,26.50
2023-02-14T00:49:02.175Z,25.80
2023-02-14T00:51:29.935Z,28.63
2023-02-14T00:53:57.510Z,29.97
2023-02-14T00:56:24.850Z,28.27
2023-02-14T00:58:52.161Z,26.73
2023-02-14T01:01:20.491Z,26.47
2023-02-14T01:03:48.028Z,25.87
2023-02-14T01:06:15.306Z,28.93
2023-02-14T01:08:42.618Z,28.83
2023-02-14T01:11:20.583Z,28.27
2023-02-14T01:13:48.621Z,30.33
2023-02-14T01:16:18.511Z,27.73
2023-02-14T01:18:46.547Z,28.40
2023-02-14T01:21:15.376Z,30.90
2023-02-14T01:23:43.305Z,30.33
2023-02-14T01:26:12.008Z,32.53
2023-02-14T01:28:39.540Z,32.33
2023-02-14T01:31:09.917Z,33.10
2023-02-14T01:33:37.236Z,29.90
2023-02-14T01:36:04.633Z,32.53
2023-02-14T01:38:32.028Z,30.83
2023-02-14T01:40:59.841Z,29.33
2023-02-14T01:43:27.201Z,29.60
2023-02-14T01:45:54.433Z,30.93
2023-02-14T01:48:22.994Z,32.70
2023-02-14T01:50:51.120Z,28.50
2023-02-14T01:53:22.318Z,30.23
2023-02-14T01:55:54.614Z,26.33
2023-02-14T01:58:26.054Z,25.40
2023-02-14T02:00:57.403Z,30.70
2023-02-14T02:03:35.101Z,27.80
2023-02-14T02:06:08.916Z,30.20
2023-02-14T02:08:38.237Z,28.13
2023-02-14T02:11:05.829Z,28.83
2023-02-14T02:13:33.315Z,27.47
2023-02-14T02:16:19.639Z,30.57
2023-02-14T02:18:54.569Z,34.63
2023-02-14T02:21:40.357Z,26.83
2023-02-14T02:24:10.921Z,30.10
2023-02-14T02:26:57.810Z,27.93
2023-02-14T02:29:33.952Z,31.37
2023-02-14T02:32:04.420Z,31.03
2023-02-14T02:34:53.046Z,29.03
2023-02-14T02:37:26.343Z,31.70
2023-02-14T02:40:04.783Z,30.57
2023-02-14T02:42:32.004Z,30.97
2023-02-14T02:45:59.127Z,32.30
2023-02-14T02:48:30.043Z,28.27
2023-02-14T02:51:17.262Z,34.27
2023-02-14T02:53:47.951Z,29.10
2023-02-14T02:56:38.319Z,26.70
2023-02-14T02:59:18.339Z,29.83
2023-02-14T03:02:22.614Z,30.77
2023-02-14T03:04:54.989Z,31.90
2023-02-14T03:07:37.188Z,32.67
2023-02-14T03:10:08.842Z,28.60
2023-02-14T03:12:39.062Z,31.00
2023-02-14T03:15:12.454Z,30.43
2023-02-14T03:17:48.854Z,29.47
2023-02-14T03:20:22.348Z,32.00
2023-02-14T03:22:57.744Z,28.17
2023-02-14T03:25:32.641Z,31.40
2023-02-14T03:28:06.151Z,32.07
2023-02-14T03:30:36.658Z,32.10
2023-02-14T03:33:10.594Z,28.37
2023-02-14T03:35:52.285Z,31.63
2023-02-14T03:38:19.557Z,29.53
2023-02-14T03:40:54.721Z,28.70
2023-02-14T03:43:26.350Z,28.60
2023-02-14T03:46:09.963Z,31.20
2023-02-14T03:48:38.746Z,30.23
2023-02-14T03:51:07.606Z,30.13
2023-02-14T03:53:37.525Z,30.50
2023-02-14T03:56:11.256Z,32.37
2023-02-14T03:58:40.123Z,29.73
2023-02-14T04:01:10.796Z,29.67
2023-02-14T04:03:40.146Z,30.07
2023-02-14T04:06:07.608Z,31.00
2023-02-14T04:08:35.000Z,27.37
2023-02-14T04:11:03.473Z,29.40
2023-02-14T04:13:30.881Z,31.70
2023-02-14T04:15:58.145Z,29.57
2023-02-14T04:18:44.314Z,32.20
2023-02-14T04:21:11.648Z,30.13
2023-02-14T04:23:38.898Z,28.43
2023-02-14T04:26:06.340Z,29.67
2023-02-14T04:28:34.020Z,29.20
2023-02-14T04:31:03.130Z,30.17
2023-02-14T04:33:30.730Z,31.93
2023-02-14T04:35:58.200Z,30.60
2023-02-14T04:38:25.557Z,30.17
2023-02-14T04:40:52.768Z,26.97
2023-02-14T04:43:20.162Z,29.43
2023-02-14T04:45:47.689Z,28.30
2023-02-14T04:48:15.028Z,28.53
2023-02-14T04:50:42.220Z,28.80
2023-02-14T04:53:09.579Z,28.83
2023-02-14T04:55:36.870Z,27.93
2023-02-14T04:58:04.241Z,28.43
2023-02-14T05:00:31.842Z,29.97
2023-02-14T05:02:59.261Z,27.90
2023-02-14T05:05:26.479Z,22.03
2023-02-14T05:07:53.700Z,24.53
2023-02-14T05:10:21.127Z,22.73
2023-02-14T05:12:48.462Z,24.53
2023-02-14T05:15:15.792Z,28.27
2023-02-14T05:17:42.994Z,25.97
2023-02-14T05:20:10.371Z,38.17
2023-02-14T05:22:37.628Z,116.60
2023-02-14T05:25:05.009Z,29.80
2023-02-14T05:27:32.314Z,20.33
2023-02-14T05:29:59.682Z,12.47
2023-02-14T05:32:26.918Z,10.60
2023-02-14T05:34:54.139Z,12.57
2023-02-14T05:37:21.424Z,10.63
2023-02-14T05:39:48.815Z,13.60
2023-02-14T05:42:16.097Z,16.40
2023-02-14T05:44:43.317Z,20.17
2023-02-14T05:47:13.017Z,23.83
2023-02-14T05:49:40.500Z,23.00
2023-02-14T05:52:07.854Z,20.43
2023-02-14T05:54:35.303Z,20.60
2023-02-14T05:57:02.756Z,20.77
2023-02-14T05:59:29.917Z,16.73
2023-02-14T06:01:57.189Z,17.67
2023-02-14T06:04:24.571Z,18.23
2023-02-14T06:06:51.999Z,16.00
2023-02-14T06:09:20.284Z,14.23
2023-02-14T06:11:47.518Z,13.83
2023-02-14T06:14:14.737Z,15.90
2023-02-14T06:16:41.965Z,18.03
2023-02-14T06:19:09.282Z,18.43
2023-02-14T06:21:37.135Z,17.97
2023-02-14T06:24:04.391Z,20.27
2023-02-14T06:26:32.893Z,18.90
2023-02-14T06:29:00.150Z,22.13
2023-02-14T06:31:27.564Z,22.00
2023-02-14T06:33:56.486Z,19.67
2023-02-14T06:36:25.753Z,22.63
2023-02-14T06:38:53.031Z,23.63
2023-02-14T06:41:20.379Z,19.63
2023-02-14T06:43:51.005Z,19.00
2023-02-14T06:46:19.470Z,21.23
2023-02-14T06:48:46.935Z,18.33
2023-02-14T06:51:14.212Z,22.60
2023-02-14T06:53:41.568Z,20.60
2023-02-14T06:56:08.797Z,22.80
2023-02-14T06:58:36.039Z,22.53
2023-02-14T07:01:03.456Z,25.17
2023-02-14T07:03:30.814Z,24.87
2023-02-14T07:05:58.517Z,24.93
2023-02-14T07:08:26.380Z,23.60
2023-02-14T07:10:56.899Z,25.53
2023-02-14T07:13:24.374Z,26.50
2023-02-14T07:15:51.756Z,24.10
2023-02-14T07:18:19.041Z,25.43
2023-02-14T07:20:47.445Z,25.30
2023-02-14T07:23:14.713Z,26.80
2023-02-14T07:25:41.968Z,25.07
2023-02-14T07:28:09.355Z,24.57
2023-02-14T07:30:36.750Z,26.33
2023-02-14T07:33:03.976Z,23.60
2023-02-14T07:35:31.267Z,22.93
2023-02-14T07:37:59.147Z,24.53
2023-02-14T07:40:26.391Z,24.83
2023-02-14T07:42:54.629Z,25.73
2023-02-14T07:45:22.434Z,25.93
2023-02-14T07:47:54.578Z,25.93
2023-02-14T07:50:22.700Z,25.37
2023-02-14T07:52:50.385Z,23.83
2023-02-14T07:55:19.191Z,22.57
2023-02-14T07:57:48.138Z,24.57
2023-02-14T08:00:15.469Z,22.70
2023-02-14T08:02:42.821Z,24.27
2023-02-14T08:05:10.642Z,27.50
2023-02-14T08:07:38.263Z,25.23
2023-02-14T08:10:05.774Z,23.40
2023-02-14T08:12:51.574Z,21.17
2023-02-14T08:18:23.234Z,23.07
2023-02-14T08:20:50.749Z,16.37
2023-02-14T08:23:18.878Z,21.23
2023-02-14T08:25:46.301Z,20.97
2023-02-14T08:28:16.889Z,20.97
2023-02-14T08:30:44.548Z,19.87
2023-02-14T08:33:11.948Z,21.63
2023-02-14T08:35:39.515Z,21.40
2023-02-14T08:38:06.985Z,16.27
2023-02-14T08:40:36.237Z,17.83
2023-02-14T08:43:04.707Z,19.20
2023-02-14T08:45:32.444Z,21.90
2023-02-14T08:48:09.492Z,16.97
2023-02-14T08:50:37.505Z,16.83
2023-02-14T08:53:11.831Z,18.90
2023-02-14T08:55:40.840Z,16.73
2023-02-14T08:58:08.394Z,17.33
2023-02-14T09:00:36.310Z,16.83
2023-02-14T09:03:03.598Z,19.33
2023-02-14T09:05:31.129Z,14.90
2023-02-14T09:07:58.467Z,14.87
2023-02-14T09:10:26.607Z,15.93
2023-02-14T09:12:53.927Z,17.33
2023-02-14T09:15:21.249Z,17.20
2023-02-14T09:17:50.736Z,17.80
2023-02-14T09:20:21.023Z,15.67
2023-02-14T09:22:48.912Z,14.13
2023-02-14T09:25:16.431Z,17.07
2023-02-14T09:27:43.754Z,15.20
2023-02-14T09:30:11.402Z,13.33
2023-02-14T09:32:38.689Z,11.87
2023-02-14T09:35:24.648Z,13.27
2023-02-14T09:38:10.506Z,14.17
2023-02-14T09:40:37.989Z,13.13
2023-02-14T09:43:22.170Z,12.60
2023-02-14T09:45:52.543Z,13.50
2023-02-14T09:48:29.608Z,14.27
2023-02-14T09:50:59.480Z,15.73
2023-02-14T09:53:28.890Z,15.53
2023-02-14T09:55:59.661Z,15.07
2023-02-14T09:58:53.288Z,15.43
2023-02-14T10:01:21.001Z,18.13
2023-02-14T10:03:54.942Z,18.63
2023-02-14T10:06:25.007Z,18.70
2023-02-14T10:08:58.763Z,17.20
2023-02-14T10:11:26.036Z,14.40
2023-02-14T10:13:55.949Z,13.80
2023-02-14T10:16:26.751Z,13.87
2023-02-14T10:19:01.617Z,15.13
2023-02-14T10:21:34.397Z,14.60
2023-02-14T10:24:19.868Z,13.17
2023-02-14T10:26:49.070Z,15.87
2023-02-14T10:29:17.758Z,13.60
2023-02-14T10:31:45.446Z,16.93
2023-02-14T10:34:12.933Z,12.80
2023-02-14T10:36:40.928Z,15.87
2023-02-14T10:39:21.495Z,14.70
2023-02-14T10:41:53.428Z,15.70
2023-02-14T10:44:31.218Z,17.33
2023-02-14T10:47:03.106Z,15.03
2023-02-14T10:49:30.329Z,16.40
2023-02-14T10:52:01.538Z,16.60
2023-02-14T10:54:33.181Z,14.87
2023-02-14T10:57:02.505Z,15.40
2023-02-14T10:59:41.913Z,15.13
2023-02-14T11:02:12.991Z,14.63
2023-02-14T11:04:42.152Z,15.87
2023-02-14T11:07:16.220Z,16.60
2023-02-14T11:09:43.556Z,16.00
2023-02-14T11:12:11.106Z,15.90
2023-02-14T11:14:39.442Z,16.83
2023-02-14T11:17:26.907Z,16.50
2023-02-14T11:19:58.278Z,17.33
2023-02-14T11:22:33.280Z,14.10
2023-02-14T11:25:27.178Z,16.13
2023-02-14T11:28:01.392Z,15.93
2023-02-14T11:30:32.160Z,15.40
2023-02-14T11:32:59.536Z,16.20
2023-02-14T11:35:33.957Z,14.87
2023-02-14T11:38:02.106Z,16.20
2023-02-14T11:40:34.087Z,14.10
2023-02-14T11:43:21.647Z,13.13
2023-02-14T11:45:50.005Z,14.43
2023-02-14T11:48:31.508Z,13.17
2023-02-14T11:51:06.156Z,14.27
2023-02-14T11:53:55.931Z,13.77
2023-02-14T11:56:23.866Z,14.50
2023-02-14T11:58:57.436Z,14.13
2023-02-14T12:01:30.716Z,13.17
2023-02-14T12:03:59.734Z,13.73
2023-02-14T12:06:31.256Z,14.13
2023-02-14T12:09:12.390Z,14.43
2023-02-14T12:11:39.864Z,13.27
2023-02-14T12:14:20.718Z,14.33
2023-02-14T12:16:53.454Z,12.67
2023-02-14T12:19:25.319Z,14.87
2023-02-14T12:21:56.258Z,13.63
2023-02-14T12:24:52.985Z,13.83
2023-02-14T12:27:26.467Z,12.53
2023-02-14T12:29:58.531Z,12.40
2023-02-14T12:32:30.566Z,12.33
2023-02-14T12:35:07.357Z,14.60
2023-02-14T12:38:03.827Z,14.00
2023-02-14T12:40:42.351Z,13.23
2023-02-14T12:43:21.853Z,13.27
2023-02-14T12:46:12.771Z,12.70
2023-02-14T12:48:58.976Z,14.13
2023-02-14T12:51:52.512Z,13.93
2023-02-14T12:54:32.085Z,13.30
2023-02-14T12:57:28.747Z,13.80
2023-02-14T13:00:19.066Z,12.97
2023-02-14T13:02:46.508Z,14.57
2023-02-14T13:05:17.096Z,11.97
2023-02-14T13:07:52.959Z,13.37
2023-02-14T13:10:27.457Z,15.23
2023-02-14T13:12:54.852Z,14.10
2023-02-14T13:15:29.686Z,14.10
2023-02-14T13:18:00.837Z,14.33
2023-02-14T13:20:34.928Z,18.70
2023-02-14T13:23:22.419Z,16.07
2023-02-14T13:25:56.850Z,15.37
2023-02-14T13:28:25.513Z,14.20
2023-02-14T13:30:53.084Z,14.80
2023-02-14T13:33:23.452Z,12.40
2023-02-14T13:36:11.706Z,13.10
2023-02-14T13:38:41.279Z,11.77
2023-02-14T13:41:09.444Z,14.17
2023-02-14T13:43:47.041Z,12.80
2023-02-14T13:46:15.837Z,10.70
2023-02-14T13:48:43.911Z,11.47
2023-02-14T13:51:13.113Z,12.00
2023-02-14T13:53:40.512Z,10.90
2023-02-14T13:56:07.859Z,12.40
2023-02-14T13:58:36.081Z,12.67
2023-02-14T14:01:23.249Z,11.40
2023-02-14T14:03:55.814Z,11.60
2023-02-14T14:06:23.484Z,12.77
2023-02-14T14:08:56.586Z,12.83
2023-02-14T14:11:27.457Z,14.30
2023-02-14T14:13:54.750Z,13.87
2023-02-14T14:16:28.036Z,14.57
2023-02-14T14:19:00.713Z,16.13
2023-02-14T14:21:28.391Z,15.20
2023-02-14T14:24:14.323Z,15.73
2023-02-14T14:26:44.367Z,16.40
2023-02-14T14:29:15.303Z,16.83
2023-02-14T14:31:42.794Z,21.83
2023-02-14T14:34:17.918Z,19.30
2023-02-14T14:36:45.447Z,21.63
2023-02-14T14:39:12.775Z,20.90
2023-02-14T14:41:41.511Z,20.57
2023-02-14T14:44:09.175Z,21.90
2023-02-14T14:46:36.790Z,19.73
2023-02-14T14:49:05.795Z,22.53
2023-02-14T14:51:34.725Z,19.73
2023-02-14T14:54:03.866Z,22.03
2023-02-14T14:56:36.020Z,20.97
2023-02-14T14:59:22.446Z,24.77
2023-02-14T15:01:51.284Z,22.50
2023-02-14T15:04:20.033Z,22.00
2023-02-14T15:06:48.749Z,21.10
2023-02-14T15:09:31.605Z,22.47
2023-02-14T15:12:21.363Z,21.80
2023-02-14T15:14:55.410Z,22.03
2023-02-14T15:17:25.799Z,22.53
2023-02-14T15:20:01.074Z,23.80
2023-02-14T15:22:42.381Z,23.87
2023-02-14T15:25:11.240Z,21.43
2023-02-14T15:27:41.250Z,22.47
2023-02-14T15:30:34.104Z,22.33
2023-02-14T15:33:05.812Z,21.83
2023-02-14T15:35:34.662Z,21.57
2023-02-14T15:38:04.133Z,25.33
2023-02-14T15:40:33.079Z,23.27
2023-02-14T15:43:25.076Z,26.27
2023-02-14T15:45:56.517Z,24.60
2023-02-14T15:48:28.050Z,22.20
2023-02-14T15:50:59.851Z,26.10
2023-02-14T15:53:40.588Z,24.43
2023-02-14T15:56:34.367Z,24.90
2023-02-14T16:02:00.803Z,23.23
2023-02-14T16:04:35.390Z,24.67
2023-02-14T16:07:24.479Z,24.23
2023-02-14T16:10:12.861Z,26.00
2023-02-14T16:12:41.071Z,25.27
2023-02-14T16:15:21.881Z,26.60
2023-02-14T16:17:49.198Z,25.33
2023-02-14T16:20:35.103Z,26.37
2023-02-14T16:23:22.338Z,24.37
2023-02-14T16:25:49.729Z,27.03
2023-02-14T16:28:17.599Z,27.67
2023-02-14T16:30:46.730Z,27.33
2023-02-14T16:33:16.854Z,28.23
2023-02-14T16:35:44.076Z,26.37
2023-02-14T16:38:15.530Z,26.73
2023-02-14T16:40:47.539Z,25.30
2023-02-14T16:43:16.657Z,26.13
2023-02-14T16:45:44.071Z,26.90
2023-02-14T16:48:11.843Z,27.40
2023-02-14T16:50:40.936Z,25.23
2023-02-14T16:53:12.925Z,27.40
2023-02-14T16:55:40.869Z,25.47
2023-02-14T16:58:08.516Z,27.30
2023-02-14T17:00:35.977Z,28.47
2023-02-14T17:03:06.211Z,26.50
2023-02-14T17:05:35.269Z,29.60
2023-02-14T17:08:03.387Z,30.90
2023-02-14T17:10:31.932Z,32.17
2023-02-14T17:12:59.402Z,32.27
2023-02-14T17:15:27.345Z,27.50
2023-02-14T17:18:00.040Z,29.40
2023-02-14T17:20:29.019Z,30.47
2023-02-14T17:22:56.656Z,33.63
2023-02-14T17:25:24.002Z,28.23
2023-02-14T17:27:51.555Z,29.90
2023-02-14T17:30:19.086Z,28.80
2023-02-14T17:32:46.543Z,30.57
2023-02-14T17:35:14.672Z,28.87
2023-02-14T17:37:42.587Z,32.20
2023-02-14T17:40:10.491Z,33.50
2023-02-14T17:42:38.781Z,69.73
2023-02-14T17:45:06.590Z,36.73
2023-02-14T17:47:34.231Z,32.57
2023-02-14T17:50:03.840Z,32.00
2023-02-14T17:52:31.406Z,33.37
2023-02-14T17:54:58.698Z,31.97
2023-02-14T17:57:26.240Z,31.97
2023-02-14T17:59:53.717Z,31.77
2023-02-14T18:02:21.064Z,31.10
2023-02-14T18:04:48.502Z,32.47
2023-02-14T18:07:15.960Z,31.47
2023-02-14T18:09:43.662Z,32.67
2023-02-14T18:12:14.752Z,32.27
2023-02-14T18:14:42.940Z,30.80
2023-02-14T18:17:12.065Z,34.50
2023-02-14T18:19:39.369Z,31.50
2023-02-14T18:22:06.898Z,32.43
2023-02-14T18:24:34.982Z,34.50
2023-02-14T18:27:02.976Z,35.43
2023-02-14T18:29:31.837Z,33.63
2023-02-14T18:31:59.346Z,38.27
2023-02-14T18:34:26.854Z,36.93
2023-02-14T18:36:54.863Z,34.10
2023-02-14T18:39:23.406Z,35.50
2023-02-14T18:41:50.781Z,36.70
2023-02-14T18:44:18.180Z,38.77
2023-02-14T18:46:45.770Z,35.17
2023-02-14T18:49:13.673Z,36.77
2023-02-14T18:51:41.082Z,38.37
2023-02-14T18:54:08.360Z,38.23
2023-02-14T18:56:37.369Z,37.37
2023-02-14T18:59:08.952Z,41.43
2023-02-14T19:01:38.355Z,38.27
2023-02-14T19:04:08.103Z,36.73
2023-02-14T19:06:36.167Z,41.63
2023-02-14T19:09:04.554Z,41.03
2023-02-14T19:11:32.810Z,37.93
2023-02-14T19:14:01.378Z,38.40
2023-02-14T19:16:30.774Z,43.53
2023-02-14T19:18:59.054Z,41.97
2023-02-14T19:21:27.680Z,40.70
2023-02-14T19:23:59.163Z,43.10
2023-02-14T19:26:27.542Z,39.37
2023-02-14T19:28:55.766Z,44.70
2023-02-14T19:31:23.518Z,41.63
2023-02-14T19:33:51.499Z,44.80
2023-02-14T19:36:19.828Z,43.10
2023-02-14T19:38:49.182Z,43.33
2023-02-14T19:41:21.027Z,42.60
2023-02-14T19:43:51.347Z,44.57
2023-02-14T19:46:20.565Z,43.10
2023-02-14T19:48:48.638Z,44.90
2023-02-14T19:51:23.297Z,45.03
2023-02-14T19:53:50.743Z,48.43
2023-02-14T19:56:22.236Z,43.77
2023-02-14T19:58:50.660Z,45.80
2023-02-14T20:01:26.102Z,47.60
2023-02-14T20:03:54.239Z,49.57
2023-02-14T20:06:22.635Z,45.17
2023-02-14T20:08:50.210Z,48.70
2023-02-14T20:11:35.676Z,50.47
2023-02-14T20:14:03.338Z,47.50
2023-02-14T20:16:32.722Z,49.17
2023-02-14T20:19:01.913Z,48.90
2023-02-14T20:21:29.340Z,51.57
2023-02-14T20:24:03.435Z,53.37
2023-02-14T20:26:31.644Z,48.87
2023-02-14T20:28:59.802Z,48.07
2023-02-14T20:31:27.275Z,48.33
2023-02-14T20:33:55.875Z,51.97
2023-02-14T20:36:23.592Z,53.43
2023-02-14T20:38:57.779Z,54.60
2023-02-14T20:41:26.127Z,51.80
2023-02-14T20:43:53.407Z,54.43
2023-02-14T20:46:20.886Z,57.70
2023-02-14T20:48:48.237Z,57.43
2023-02-14T20:51:17.170Z,52.10
2023-02-14T20:53:44.993Z,55.70
2023-02-14T20:56:12.661Z,54.83
2023-02-14T20:58:40.439Z,54.63
2023-02-14T21:01:09.688Z,57.63
2023-02-14T21:03:37.541Z,56.90
2023-02-14T21:06:05.640Z,56.00
2023-02-14T21:08:51.663Z,55.53
2023-02-14T21:11:20.709Z,59.60
2023-02-14T21:13:48.089Z,61.77
2023-02-14T21:16:16.445Z,59.07
2023-02-14T21:18:47.929Z,58.60
2023-02-14T21:21:17.858Z,55.10
2023-02-14T21:23:45.163Z,56.23
2023-02-14T21:26:12.447Z,59.63
2023-02-14T21:31:27.932Z,59.93
2023-02-14T21:33:56.492Z,60.93
2023-02-14T21:36:24.966Z,60.70
2023-02-14T21:39:11.187Z,59.50
2023-02-14T21:41:38.539Z,57.73
2023-02-14T21:44:06.718Z,57.70
2023-02-14T21:46:36.661Z,61.70
2023-02-14T21:49:23.882Z,62.17
2023-02-14T21:51:52.785Z,58.13
2023-02-14T21:54:20.169Z,61.20
2023-02-14T21:56:49.241Z,60.80
2023-02-14T21:59:16.611Z,58.93
2023-02-14T22:01:44.154Z,63.77
2023-02-14T22:04:13.905Z,60.10
2023-02-14T22:06:42.651Z,62.57
2023-02-14T22:09:10.885Z,57.30
2023-02-14T22:11:38.195Z,61.90
2023-02-14T22:14:05.448Z,60.53
2023-02-14T22:16:32.763Z,61.17
2023-02-14T22:19:00.018Z,58.80
2023-02-14T22:21:27.946Z,58.00
2023-02-14T22:23:56.077Z,62.83
2023-02-14T22:26:25.969Z,56.47
2023-02-14T22:28:55.825Z,60.00
2023-02-14T22:31:24.316Z,56.53
2023-02-14T22:33:51.763Z,56.97
2023-02-14T22:36:19.057Z,56.17
2023-02-14T22:41:37.561Z,54.97
2023-02-14T22:44:05.144Z,55.13
2023-02-14T22:46:32.728Z,58.87
2023-02-14T22:49:00.275Z,60.37
2023-02-14T22:51:31.941Z,55.70
2023-02-14T22:54:01.512Z,58.57
2023-02-14T22:56:30.940Z,59.23
2023-02-14T22:58:59.447Z,53.73
2023-02-14T23:01:26.855Z,56.53
2023-02-14T23:03:56.111Z,54.63
2023-02-14T23:06:24.377Z,52.63
2023-02-14T23:08:51.676Z,54.10
2023-02-14T23:11:20.148Z,57.17
2023-02-14T23:14:06.476Z,57.40
2023-02-14T23:16:55.043Z,60.07
2023-02-14T23:19:42.472Z,52.03
2023-02-14T23:22:14.292Z,52.83
2023-02-14T23:24:41.978Z,51.60
2023-02-14T23:27:09.932Z,52.93
2023-02-14T23:29:37.517Z,52.27
2023-02-14T23:32:08.061Z,52.03
2023-02-14T23:34:36.861Z,50.90
2023-02-14T23:37:04.080Z,47.10
2023-02-14T23:39:36.760Z,49.97
2023-02-14T23:42:08.522Z,50.57
2023-02-14T23:44:36.319Z,52.53
2023-02-14T23:47:04.942Z,48.70
2023-02-14T23:49:33.255Z,49.93
2023-02-14T23:52:00.784Z,52.00
2023-02-14T23:54:28.093Z,48.20
2023-02-14T23:56:55.393Z,49.07
2023-02-14T23:59:22.874Z,46.47
